createdAt,value
2023-05-15T00:00:58.456Z,10.04
2023-05-15T00:11:02.210Z,9.93
2023-05-15T00:21:04.686Z,9.73
2023-05-15T00:31:07.159Z,9.57
2023-05-15T00:41:10.582Z,9.59
2023-05-15T00:51:13.293Z,9.70
2023-05-15T01:01:16.661Z,9.87
2023-05-15T01:11:19.124Z,9.97
2023-05-15T01:21:36.641Z,9.97
2023-05-15T01:31:42.624Z,9.89
2023-05-15T01:42:02.438Z,9.82
2023-05-15T01:52:13.139Z,9.64
2023-05-15T02:02:16.148Z,9.41
2023-05-15T02:12:18.926Z,9.13
2023-05-15T02:22:21.323Z,8.88
2023-05-15T02:32:32.184Z,8.69
2023-05-15T02:42:35.041Z,8.55
2023-05-15T02:52:37.387Z,8.42
2023-05-15T03:02:40.059Z,8.46
2023-05-15T03:12:42.400Z,8.72
2023-05-15T03:22:44.510Z,8.57
2023-05-15T03:32:46.840Z,8.42
2023-05-15T03:42:49.184Z,8.25
2023-05-15T03:52:51.355Z,8.14
2023-05-15T04:02:53.702Z,8.13
2023-05-15T04:12:56.045Z,8.20
2023-05-15T04:22:58.318Z,8.26
2023-05-15T04:33:00.836Z,8.42
2023-05-15T04:43:04.761Z,8.53
2023-05-15T04:53:07.079Z,8.51
2023-05-15T05:03:09.584Z,8.61
2023-05-15T05:13:12.345Z,8.82
2023-05-15T05:23:18.787Z,9.09
2023-05-15T05:33:21.023Z,9.55
2023-05-15T05:43:23.495Z,9.95
2023-05-15T05:53:26.066Z,10.39
2023-05-15T06:03:28.962Z,10.68
2023-05-15T06:13:31.618Z,11.11
2023-05-15T06:23:34.203Z,11.48
2023-05-15T06:33:36.996Z,11.90
2023-05-15T06:43:39.657Z,12.22
2023-05-15T06:53:42.706Z,12.44
2023-05-15T07:03:45.261Z,12.65
2023-05-15T07:13:48.210Z,12.82
2023-05-15T07:23:51.135Z,13.05
2023-05-15T07:33:54.014Z,13.37
2023-05-15T07:43:57.164Z,13.78
2023-05-15T07:54:00.729Z,14.11
2023-05-15T08:04:07.894Z,14.32
2023-05-15T08:14:12.436Z,14.71
2023-05-15T08:24:18.454Z,15.11
2023-05-15T08:34:21.798Z,15.41
2023-05-15T08:44:25.589Z,16.05
2023-05-15T08:54:29.297Z,16.76
2023-05-15T09:04:32.463Z,16.85
2023-05-15T09:14:36.090Z,17.56
2023-05-15T09:24:39.715Z,17.93
2023-05-15T09:34:44.375Z,18.27
2023-05-15T09:44:50.481Z,18.66
2023-05-15T09:54:55.475Z,17.83
2023-05-15T10:05:00.024Z,17.72
2023-05-15T10:15:05.719Z,18.05
2023-05-15T10:25:17.572Z,18.61
2023-05-15T10:35:22.597Z,19.06
2023-05-15T10:45:26.734Z,18.93
2023-05-15T10:55:32.313Z,20.04
2023-05-15T11:05:55.095Z,19.79
2023-05-15T11:15:58.429Z,20.01
2023-05-15T11:26:04.286Z,20.64
2023-05-15T11:36:08.584Z,21.94
2023-05-15T11:46:13.860Z,21.17
2023-05-15T11:56:22.116Z,21.71
2023-05-15T12:06:27.860Z,22.78
2023-05-15T12:16:31.511Z,22.85
2023-05-15T12:26:35.225Z,23.60
2023-05-15T12:36:38.438Z,23.59
2023-05-15T12:46:42.113Z,22.64
2023-05-15T12:56:45.894Z,21.42
2023-05-15T13:06:49.718Z,20.99
2023-05-15T13:16:52.798Z,21.95
2023-05-15T13:26:56.948Z,22.04
2023-05-15T13:37:00.210Z,22.75
2023-05-15T13:47:05.116Z,22.69
2023-05-15T13:57:08.834Z,21.47
2023-05-15T14:07:11.676Z,21.05
2023-05-15T14:17:16.326Z,20.36
2023-05-15T14:27:18.906Z,19.75
2023-05-15T14:37:21.744Z,19.22
2023-05-15T14:47:26.165Z,18.87
2023-05-15T14:57:29.289Z,18.99
2023-05-15T15:07:52.272Z,19.41
2023-05-15T15:17:56.754Z,19.25
2023-05-15T15:27:59.380Z,18.86
2023-05-15T15:38:02.451Z,18.51
2023-05-15T15:48:05.884Z,18.79
2023-05-15T15:58:10.170Z,19.43
2023-05-15T16:08:14.569Z,20.07
2023-05-15T16:18:17.599Z,19.69
2023-05-15T16:28:21.470Z,19.48
2023-05-15T16:38:25.666Z,19.25
2023-05-15T16:48:30.524Z,18.82
2023-05-15T16:58:35.685Z,19.05
2023-05-15T17:08:38.562Z,18.56
2023-05-15T17:18:41.481Z,17.75
2023-05-15T17:28:45.763Z,17.02
2023-05-15T17:38:49.082Z,16.43
2023-05-15T17:48:52.135Z,15.74
2023-05-15T17:58:55.391Z,15.08
2023-05-15T18:08:58.991Z,14.61
2023-05-15T18:19:02.801Z,14.05
2023-05-15T18:29:05.861Z,13.59
2023-05-15T18:39:08.498Z,13.34
2023-05-15T18:49:11.254Z,13.22
2023-05-15T18:59:14.145Z,13.01
2023-05-15T19:09:18.595Z,12.86
2023-05-15T19:19:21.668Z,12.74
2023-05-15T19:29:24.237Z,12.52
2023-05-15T19:39:27.134Z,12.42
2023-05-15T19:49:29.896Z,12.31
2023-05-15T19:59:32.469Z,12.22
2023-05-15T20:09:36.208Z,12.14
2023-05-15T20:19:40.225Z,12.01
2023-05-15T20:29:43.224Z,11.92
2023-05-15T20:39:45.680Z,11.79
2023-05-15T20:49:48.222Z,11.76
2023-05-15T20:59:50.615Z,11.67
2023-05-15T21:09:53.143Z,11.59
2023-05-15T21:19:58.107Z,11.56
2023-05-15T21:30:00.593Z,11.51
2023-05-15T21:40:03.000Z,11.45
2023-05-15T21:50:06.224Z,11.40
2023-05-15T22:00:09.617Z,11.30
2023-05-15T22:10:16.913Z,11.30
2023-05-15T22:20:19.340Z,11.24
2023-05-15T22:30:21.918Z,11.13
2023-05-15T22:40:24.498Z,11.01
2023-05-15T22:50:27.306Z,10.87
2023-05-15T23:00:30.728Z,10.81
2023-05-15T23:10:33.495Z,10.81
2023-05-15T23:20:35.938Z,10.85
2023-05-15T23:30:38.277Z,10.88
2023-05-15T23:40:40.821Z,10.88
2023-05-15T23:50:43.253Z,10.81
